Time;durP1;ratioP1;P1;durP2;ratioP2;P2;SDS_P1;SDS_P2;PMS_P1;PMS_P2;Temp;Humidity;BMP_temperature;BMP_pressure;BME280_temperature;BME280_humidity;BME280_pressure;Samples;Min_cycle;Max_cycle;Signal;HPM_P1;HPM_P2
2022/10/24 00:02:08;;;;;;;3.95;0.85;;;18.80;99.90;;;;;;7389205;19;20134;-75
2022/10/24 00:04:39;;;;;;;2.45;0.75;;;18.80;99.90;;;;;;7387041;19;20178;-75
2022/10/24 00:07:06;;;;;;;2.72;1.00;;;18.70;99.90;;;;;;7386444;19;20159;-75
2022/10/24 00:09:33;;;;;;;2.42;0.85;;;18.70;99.90;;;;;;7387027;19;20198;-74
2022/10/24 00:11:59;;;;;;;2.83;1.08;;;18.70;99.90;;;;;;7389626;19;20146;-75
2022/10/24 00:14:25;;;;;;;4.18;1.10;;;18.70;99.90;;;;;;7394290;19;20139;-75
2022/10/24 00:16:51;;;;;;;2.20;0.80;;;18.60;99.90;;;;;;7397510;19;20169;-77
2022/10/24 00:19:17;;;;;;;3.13;0.90;;;18.60;99.90;;;;;;7391721;19;20488;-75
2022/10/24 00:21:43;;;;;;;3.55;1.05;;;18.60;99.90;;;;;;7391379;19;20146;-75
2022/10/24 00:24:09;;;;;;;3.38;0.80;;;18.60;99.90;;;;;;7391083;19;20143;-75
2022/10/24 00:26:37;;;;;;;1.77;0.80;;;18.60;99.90;;;;;;7389911;19;20138;-75
2022/10/24 00:29:03;;;;;;;5.38;1.40;;;18.60;99.90;;;;;;7386992;19;20138;-76
2022/10/24 00:31:30;;;;;;;2.53;1.02;;;18.50;99.90;;;;;;7386966;19;20153;-76
2022/10/24 00:34:02;;;;;;;2.53;0.93;;;18.50;99.90;;;;;;7386327;19;20175;-78
2022/10/24 00:36:30;;;;;;;2.28;0.90;;;18.50;99.90;;;;;;7387198;19;20152;-75
2022/10/24 00:38:55;;;;;;;1.42;0.90;;;18.40;99.90;;;;;;7386290;19;20147;-75
2022/10/24 00:41:32;;;;;;;2.97;0.90;;;18.50;99.90;;;;;;7386048;19;20145;-75
2022/10/24 00:44:31;;;;;;;5.35;1.10;;;18.50;99.90;;;;;;7386877;19;20496;-75
2022/10/24 00:47:05;;;;;;;2.95;0.70;;;18.50;99.90;;;;;;7384392;19;20258;-75
2022/10/24 00:49:39;;;;;;;2.83;1.13;;;18.50;99.90;;;;;;7385952;19;20167;-75
2022/10/24 00:52:08;;;;;;;1.98;0.68;;;18.40;99.90;;;;;;7385667;19;20142;-77
2022/10/24 00:54:37;;;;;;;2.28;0.82;;;18.40;99.90;;;;;;7386747;19;20131;-77
2022/10/24 00:57:15;;;;;;;3.90;0.80;;;18.40;99.90;;;;;;7388494;19;20134;-74
2022/10/24 00:59:45;;;;;;;2.40;1.13;;;18.40;99.90;;;;;;7386554;19;20135;-75
2022/10/24 01:02:11;;;;;;;5.10;0.82;;;18.30;99.90;;;;;;7386561;19;20134;-75
2022/10/24 01:04:37;;;;;;;3.53;0.68;;;18.20;99.90;;;;;;7385320;19;20141;-75
2022/10/24 01:07:12;;;;;;;3.22;1.00;;;18.10;99.90;;;;;;7384828;19;20178;-75
2022/10/24 01:10:15;;;;;;;3.03;0.88;;;18.10;99.90;;;;;;7387408;19;20141;-75
2022/10/24 01:13:07;;;;;;;3.80;1.10;;;18.20;99.90;;;;;;7386419;19;20138;-75
2022/10/24 01:15:39;;;;;;;1.70;0.90;;;18.00;99.90;;;;;;7381353;19;20134;-75
2022/10/24 01:18:28;;;;;;;2.03;0.88;;;18.00;99.90;;;;;;7391303;19;20139;-75
2022/10/24 01:21:09;;;;;;;2.05;0.88;;;18.00;99.90;;;;;;7392269;19;20139;-75
2022/10/24 01:24:01;;;;;;;3.63;0.80;;;18.00;99.90;;;;;;7391626;19;20155;-75
2022/10/24 01:27:24;;;;;;;0.93;0.77;;;18.00;99.90;;;;;;7388811;19;20143;-75
2022/10/24 01:30:11;;;;;;;3.90;1.10;;;18.00;99.90;;;;;;7387461;19;20141;-75
2022/10/24 01:32:55;;;;;;;6.82;1.83;;;18.00;99.90;;;;;;7389402;19;20150;-74
2022/10/24 01:35:39;;;;;;;6.07;1.33;;;18.00;99.90;;;;;;7392828;19;20131;-75
2022/10/24 01:38:27;;;;;;;1.48;1.05;;;17.90;99.90;;;;;;7392929;19;20359;-75
2022/10/24 01:41:12;;;;;;;4.53;1.10;;;17.90;99.90;;;;;;7392315;19;20137;-75
2022/10/24 01:44:01;;;;;;;4.03;1.05;;;17.80;99.90;;;;;;7393441;19;20169;-75
2022/10/24 01:46:49;;;;;;;6.85;1.23;;;17.80;99.90;;;;;;7391810;19;20147;-75
2022/10/24 01:49:18;;;;;;;5.60;1.30;;;17.70;99.90;;;;;;7388398;19;20134;-75
2022/10/24 01:51:47;;;;;;;3.65;1.08;;;17.70;99.90;;;;;;7395300;19;20617;-74
2022/10/24 01:54:14;;;;;;;4.97;1.10;;;17.60;99.90;;;;;;7390843;19;20137;-75
2022/10/24 01:56:40;;;;;;;3.00;0.90;;;17.50;99.90;;;;;;7392758;19;20135;-76
2022/10/24 01:59:29;;;;;;;5.80;1.58;;;17.50;99.90;;;;;;7389983;19;20137;-75
2022/10/24 02:02:01;;;;;;;2.45;1.00;;;17.40;99.90;;;;;;7393771;19;20460;-75
2022/10/24 02:04:30;;;;;;;4.50;1.05;;;17.40;99.90;;;;;;7388722;19;20254;-75
2022/10/24 02:06:59;;;;;;;7.82;1.48;;;17.40;99.90;;;;;;7388522;19;20165;-75
2022/10/24 02:09:25;;;;;;;2.85;1.10;;;17.40;99.90;;;;;;7390905;19;20147;-75
2022/10/24 02:11:55;;;;;;;4.10;1.17;;;17.30;99.90;;;;;;7391271;19;20163;-75
2022/10/24 02:14:32;;;;;;;4.55;1.30;;;17.40;99.90;;;;;;7389795;19;20881;-76
2022/10/24 02:16:59;;;;;;;2.83;1.20;;;17.50;99.90;;;;;;7391934;19;20146;-75
2022/10/24 02:19:25;;;;;;;3.03;1.02;;;17.60;99.90;;;;;;7384784;19;20194;-76
2022/10/24 02:22:07;;;;;;;4.82;1.20;;;17.60;99.90;;;;;;7392804;19;20135;-76
2022/10/24 02:24:45;;;;;;;5.15;1.52;;;17.50;99.90;;;;;;7392115;19;20592;-74
2022/10/24 02:27:37;;;;;;;4.60;1.95;;;17.50;99.90;;;;;;7391041;19;20202;-75
2022/10/24 02:30:06;;;;;;;4.85;1.52;;;17.40;99.90;;;;;;7387403;19;20176;-75
2022/10/24 02:32:37;;;;;;;6.03;1.70;;;17.50;99.90;;;;;;7392497;19;20147;-75
2022/10/24 02:35:05;;;;;;;3.67;1.30;;;17.50;99.90;;;;;;7391877;19;20142;-75
2022/10/24 02:37:35;;;;;;;5.38;1.00;;;17.50;99.90;;;;;;7390093;19;20160;-76
2022/10/24 02:40:04;;;;;;;7.28;1.42;;;17.60;99.90;;;;;;7386944;19;20175;-75
2022/10/24 02:42:31;;;;;;;3.35;1.00;;;17.70;99.90;;;;;;7392166;19;20142;-75
2022/10/24 02:44:58;;;;;;;2.55;1.20;;;17.60;99.90;;;;;;7389445;19;20272;-75
2022/10/24 02:47:25;;;;;;;5.47;1.15;;;17.70;99.90;;;;;;7392801;19;20513;-75
2022/10/24 02:49:52;;;;;;;10.30;1.98;;;17.80;99.90;;;;;;7389580;19;20578;-75
2022/10/24 02:52:18;;;;;;;2.72;0.98;;;17.90;99.90;;;;;;7393387;19;20157;-75
2022/10/24 02:54:44;;;;;;;4.07;1.10;;;17.80;99.90;;;;;;7392217;19;20534;-75
2022/10/24 02:57:10;;;;;;;4.28;1.42;;;17.80;99.90;;;;;;7389932;19;20136;-75
2022/10/24 02:59:36;;;;;;;4.45;1.13;;;17.80;99.90;;;;;;7389670;19;20146;-74
2022/10/24 03:02:01;;;;;;;5.03;1.27;;;17.80;99.90;;;;;;7390005;19;20162;-74
2022/10/24 03:04:27;;;;;;;4.25;1.13;;;17.80;99.90;;;;;;7389459;19;20210;-74
2022/10/24 03:06:53;;;;;;;3.08;1.10;;;17.80;99.90;;;;;;7388502;19;20150;-73
2022/10/24 03:09:19;;;;;;;5.95;1.70;;;17.80;99.90;;;;;;7390158;19;20231;-74
2022/10/24 03:11:44;;;;;;;5.75;1.33;;;17.90;99.90;;;;;;7390198;19;20195;-74
2022/10/24 03:14:10;;;;;;;4.35;1.20;;;18.10;99.90;;;;;;7388531;19;20157;-74
2022/10/24 03:16:36;;;;;;;4.47;1.60;;;18.10;99.90;;;;;;7391476;19;20135;-74
2022/10/24 03:19:02;;;;;;;3.35;1.60;;;18.10;99.90;;;;;;7388851;19;20145;-74
2022/10/24 03:21:28;;;;;;;5.05;1.30;;;18.10;99.90;;;;;;7389292;19;20190;-73
2022/10/24 03:23:53;;;;;;;4.80;1.50;;;18.00;99.90;;;;;;7391653;19;20147;-73
2022/10/24 03:26:19;;;;;;;5.70;1.63;;;18.20;99.90;;;;;;7388825;19;20141;-74
2022/10/24 03:28:45;;;;;;;6.00;1.33;;;18.20;99.90;;;;;;7388021;19;20147;-74
2022/10/24 03:31:11;;;;;;;6.00;1.20;;;18.10;99.90;;;;;;7389766;19;20526;-74
2022/10/24 03:33:36;;;;;;;6.20;2.20;;;18.10;99.90;;;;;;7387093;19;20182;-75
2022/10/24 03:36:04;;;;;;;6.35;1.70;;;18.10;99.90;;;;;;7386391;19;20205;-74
2022/10/24 03:38:30;;;;;;;6.85;1.30;;;18.20;99.90;;;;;;7388573;19;20126;-74
2022/10/24 03:40:56;;;;;;;7.40;1.50;;;18.20;99.90;;;;;;7390330;19;20131;-74
2022/10/24 03:43:22;;;;;;;5.07;1.60;;;18.00;99.90;;;;;;7389660;19;20553;-74
2022/10/24 03:45:48;;;;;;;6.70;1.52;;;18.00;99.90;;;;;;7388470;19;20153;-74
2022/10/24 03:48:14;;;;;;;5.65;1.77;;;17.90;99.90;;;;;;7387015;19;20190;-74
2022/10/24 03:50:40;;;;;;;3.85;1.45;;;17.90;99.90;;;;;;7388567;19;20139;-74
2022/10/24 03:53:05;;;;;;;3.83;1.58;;;18.10;99.90;;;;;;7388245;19;20504;-74
2022/10/24 03:55:32;;;;;;;8.35;1.60;;;18.00;99.90;;;;;;7389996;19;20535;-73
2022/10/24 03:57:58;;;;;;;4.25;1.90;;;18.00;99.90;;;;;;7387985;19;20146;-74
2022/10/24 04:00:26;;;;;;;6.72;1.70;;;17.90;99.90;;;;;;7388499;19;20500;-74
2022/10/24 04:02:52;;;;;;;6.40;1.60;;;17.90;99.90;;;;;;7387970;19;20158;-75
2022/10/24 04:05:18;;;;;;;5.13;1.70;;;17.90;99.90;;;;;;7388702;19;20521;-74
2022/10/24 04:07:44;;;;;;;9.65;1.90;;;18.00;99.90;;;;;;7387084;19;20159;-73
2022/10/24 04:10:10;;;;;;;3.45;1.65;;;18.10;99.90;;;;;;7390865;19;20146;-74
2022/10/24 04:12:36;;;;;;;4.25;1.50;;;18.10;99.90;;;;;;7386813;19;20623;-74
2022/10/24 04:15:02;;;;;;;7.53;1.20;;;18.00;99.90;;;;;;7391285;19;20134;-74
2022/10/24 04:17:28;;;;;;;5.40;1.60;;;18.00;99.90;;;;;;7387632;19;20178;-74
2022/10/24 04:19:54;;;;;;;5.30;1.40;;;17.90;99.90;;;;;;7386190;19;20604;-74
2022/10/24 04:22:20;;;;;;;3.28;1.15;;;17.80;99.90;;;;;;7387007;19;20146;-73
2022/10/24 04:24:45;;;;;;;2.88;1.33;;;17.80;99.90;;;;;;7387901;19;20151;-74
2022/10/24 04:27:11;;;;;;;5.80;1.33;;;17.80;99.90;;;;;;7386697;19;20426;-73
2022/10/24 04:29:37;;;;;;;6.18;1.73;;;17.80;99.90;;;;;;7385119;19;20179;-74
2022/10/24 04:32:02;;;;;;;4.32;1.60;;;17.80;99.90;;;;;;7385918;19;20157;-73
2022/10/24 04:34:28;;;;;;;5.55;1.35;;;17.80;99.90;;;;;;7386492;19;20151;-73
2022/10/24 04:36:54;;;;;;;4.53;1.67;;;17.80;99.90;;;;;;7385710;19;20544;-73
2022/10/24 04:39:20;;;;;;;4.20;1.40;;;17.70;99.90;;;;;;7384407;19;20139;-74
2022/10/24 04:41:46;;;;;;;8.80;1.77;;;17.50;99.90;;;;;;7385956;19;20146;-73
2022/10/24 04:44:11;;;;;;;8.93;2.05;;;17.60;99.90;;;;;;7389807;19;20143;-73
2022/10/24 04:46:38;;;;;;;6.53;1.65;;;17.60;99.90;;;;;;7386086;19;20177;-74
2022/10/24 04:49:04;;;;;;;5.88;1.85;;;17.40;99.90;;;;;;7386927;19;20162;-74
2022/10/24 04:51:30;;;;;;;7.55;1.52;;;17.50;99.90;;;;;;7387196;19;20153;-73
2022/10/24 04:53:55;;;;;;;5.35;1.58;;;17.50;99.90;;;;;;7398057;19;20604;-74
2022/10/24 04:56:21;;;;;;;4.05;1.70;;;17.60;99.90;;;;;;7393872;19;20146;-74
2022/10/24 04:58:47;;;;;;;6.68;2.22;;;17.60;99.90;;;;;;7394242;19;20160;-74
2022/10/24 05:01:13;;;;;;;4.72;1.50;;;17.80;99.90;;;;;;7395432;19;20148;-73
2022/10/24 05:03:39;;;;;;;4.45;1.83;;;17.80;99.90;;;;;;7393497;19;20146;-73
2022/10/24 05:06:05;;;;;;;6.85;1.48;;;17.80;99.90;;;;;;7394856;19;20501;-73
2022/10/24 05:08:30;;;;;;;6.40;1.90;;;17.90;99.90;;;;;;7393665;19;20134;-74
2022/10/24 05:10:56;;;;;;;4.88;1.60;;;17.80;99.90;;;;;;7396053;19;20138;-73
2022/10/24 05:13:22;;;;;;;8.40;1.90;;;17.80;99.90;;;;;;7396474;19;20615;-73
2022/10/24 05:15:48;;;;;;;7.00;1.75;;;17.80;99.90;;;;;;7396218;19;20156;-74
2022/10/24 05:18:13;;;;;;;5.72;1.98;;;17.80;99.90;;;;;;7391906;19;20145;-73
2022/10/24 05:20:39;;;;;;;3.63;1.50;;;17.80;99.90;;;;;;7394774;19;20166;-74
2022/10/24 05:23:05;;;;;;;6.18;1.60;;;17.90;99.90;;;;;;7396277;19;20135;-74
2022/10/24 05:25:31;;;;;;;4.32;1.38;;;18.00;99.90;;;;;;7394499;19;20138;-74
2022/10/24 05:27:57;;;;;;;3.70;1.40;;;17.90;99.90;;;;;;7395223;19;20600;-75
2022/10/24 05:30:22;;;;;;;3.67;1.52;;;18.00;99.90;;;;;;7393222;19;20146;-74
2022/10/24 05:32:48;;;;;;;4.45;1.38;;;18.00;99.90;;;;;;7393997;19;20134;-73
2022/10/24 05:35:14;;;;;;;10.75;1.83;;;18.00;99.90;;;;;;7398225;19;20150;-73
2022/10/24 05:37:40;;;;;;;4.97;1.67;;;18.10;99.90;;;;;;7399648;19;20138;-74
2022/10/24 05:40:07;;;;;;;6.90;1.77;;;18.20;99.90;;;;;;7396041;19;20151;-73
2022/10/24 05:42:33;;;;;;;3.50;1.60;;;18.10;99.90;;;;;;7393811;19;20221;-73
2022/10/24 05:44:59;;;;;;;3.10;1.58;;;18.00;99.90;;;;;;7398572;19;20463;-73
2022/10/24 05:47:25;;;;;;;8.13;1.75;;;18.10;99.90;;;;;;7395931;19;20146;-74
2022/10/24 05:49:50;;;;;;;5.50;1.48;;;18.10;99.90;;;;;;7393632;19;20123;-73
2022/10/24 05:52:16;;;;;;;9.35;2.35;;;18.10;99.90;;;;;;7393055;19;20142;-74
2022/10/24 05:54:42;;;;;;;8.30;1.70;;;18.10;99.90;;;;;;7393275;19;20143;-73
2022/10/24 05:57:08;;;;;;;5.40;1.73;;;18.00;99.90;;;;;;7391979;19;20607;-72
2022/10/24 05:59:33;;;;;;;6.77;1.80;;;18.20;99.90;;;;;;7386101;19;21001;-73
2022/10/24 06:01:59;;;;;;;3.90;1.50;;;18.10;99.90;;;;;;7391518;19;20857;-74
2022/10/24 06:04:25;;;;;;;6.30;1.60;;;18.10;99.90;;;;;;7386085;19;21020;-73
2022/10/24 06:06:50;;;;;;;6.85;2.35;;;18.10;99.90;;;;;;7388662;19;20150;-72
2022/10/24 06:09:16;;;;;;;12.20;2.38;;;18.20;99.90;;;;;;7392578;19;20644;-73
2022/10/24 06:11:42;;;;;;;6.65;2.00;;;18.30;99.90;;;;;;7391950;19;20518;-73
2022/10/24 06:14:08;;;;;;;6.25;1.70;;;17.80;99.90;;;;;;7391596;19;20143;-73
2022/10/24 06:16:34;;;;;;;4.68;1.27;;;17.20;99.90;;;;;;7394186;19;20147;-75
2022/10/24 06:19:00;;;;;;;7.05;1.63;;;16.90;99.90;;;;;;7391500;19;20142;-74
2022/10/24 06:21:26;;;;;;;9.02;3.05;;;16.90;99.90;;;;;;7394847;19;20138;-74
2022/10/24 06:23:52;;;;;;;5.32;2.30;;;16.90;99.90;;;;;;7394164;19;20198;-75
2022/10/24 06:26:18;;;;;;;6.13;1.77;;;16.80;99.90;;;;;;7391256;19;20150;-73
2022/10/24 06:28:44;;;;;;;3.55;1.95;;;16.60;99.90;;;;;;7392847;19;20604;-75
2022/10/24 06:31:11;;;;;;;4.60;1.98;;;16.60;99.90;;;;;;7394530;19;20469;-75
2022/10/24 06:33:38;;;;;;;5.65;2.10;;;16.70;99.90;;;;;;7389818;19;20154;-74
2022/10/24 06:36:08;;;;;;;4.70;1.98;;;16.50;99.90;;;;;;7392563;19;20604;-74
2022/10/24 06:38:34;;;;;;;7.53;1.98;;;16.60;99.90;;;;;;7390548;19;20173;-74
2022/10/24 06:41:06;;;;;;;5.72;2.45;;;16.60;99.90;;;;;;7390575;19;20237;-75
2022/10/24 06:43:32;;;;;;;4.95;2.05;;;16.60;99.90;;;;;;7393415;19;20210;-74
2022/10/24 06:45:58;;;;;;;7.63;1.95;;;16.70;99.90;;;;;;7390591;19;20557;-74
2022/10/24 06:48:23;;;;;;;4.47;1.77;;;16.80;99.90;;;;;;7390143;19;20155;-74
2022/10/24 06:50:49;;;;;;;5.72;2.33;;;16.90;99.90;;;;;;7392469;19;20149;-75
2022/10/24 06:53:15;;;;;;;7.13;2.53;;;16.90;99.90;;;;;;7391078;19;20185;-74
2022/10/24 06:55:41;;;;;;;6.03;2.15;;;16.90;99.90;;;;;;7389591;19;20143;-74
2022/10/24 06:58:06;;;;;;;5.28;1.70;;;16.90;99.90;;;;;;7388264;19;20142;-75
2022/10/24 07:00:33;;;;;;;9.40;2.58;;;17.00;99.90;;;;;;7383263;19;20154;-74
2022/10/24 07:02:59;;;;;;;5.35;2.05;;;16.90;99.90;;;;;;7393393;19;21363;-75
2022/10/24 07:05:25;;;;;;;3.88;1.85;;;16.70;99.90;;;;;;7394104;19;20130;-75
2022/10/24 07:07:53;;;;;;;5.28;1.73;;;16.80;99.90;;;;;;7394032;19;20131;-75
2022/10/24 07:10:19;;;;;;;6.05;2.17;;;16.90;99.90;;;;;;7392296;19;20608;-74
2022/10/24 07:12:46;;;;;;;6.40;2.22;;;16.90;99.90;;;;;;7391578;19;20150;-74
2022/10/24 07:15:12;;;;;;;4.50;2.13;;;16.90;99.90;;;;;;7391410;19;20159;-74
2022/10/24 07:17:42;;;;;;;6.80;2.05;;;16.80;99.90;;;;;;7394186;19;20131;-76
2022/10/24 07:20:09;;;;;;;3.42;1.73;;;16.80;99.90;;;;;;7388491;19;20488;-75
2022/10/24 07:22:35;;;;;;;4.47;1.98;;;16.80;99.90;;;;;;7391743;19;20471;-74
2022/10/24 07:25:02;;;;;;;3.88;1.80;;;16.80;99.90;;;;;;7393658;19;20122;-74
2022/10/24 07:27:28;;;;;;;3.90;1.85;;;16.80;99.90;;;;;;7391706;19;20138;-73
2022/10/24 07:29:58;;;;;;;6.93;2.47;;;16.80;99.90;;;;;;7387632;19;20154;-73
2022/10/24 07:32:24;;;;;;;4.50;2.17;;;16.70;99.90;;;;;;7392983;19;20147;-72
2022/10/24 07:34:49;;;;;;;6.68;2.25;;;16.80;99.90;;;;;;7391895;19;20149;-73
2022/10/24 07:37:17;;;;;;;6.80;2.17;;;16.80;99.90;;;;;;7394131;19;20186;-73
2022/10/24 07:39:45;;;;;;;11.10;4.85;;;16.80;99.90;;;;;;7392133;19;20131;-74
2022/10/24 07:42:12;;;;;;;4.93;2.67;;;16.80;99.90;;;;;;7391396;19;20526;-74
2022/10/24 07:44:38;;;;;;;5.13;2.13;;;16.80;99.90;;;;;;7390828;19;20222;-73
2022/10/24 07:47:07;;;;;;;5.68;2.55;;;16.80;99.90;;;;;;7390956;19;20138;-74
2022/10/24 07:49:33;;;;;;;4.68;2.08;;;16.80;99.90;;;;;;7387220;19;20659;-73
2022/10/24 07:51:59;;;;;;;5.97;2.00;;;17.00;99.90;;;;;;7389727;19;20131;-73
2022/10/24 07:54:27;;;;;;;5.40;2.25;;;16.90;99.90;;;;;;7391180;19;20198;-74
2022/10/24 07:56:53;;;;;;;6.35;2.03;;;16.90;99.90;;;;;;7390770;19;20146;-73
2022/10/24 07:59:18;;;;;;;7.47;2.65;;;16.70;99.90;;;;;;7388764;19;20155;-74
2022/10/24 08:01:44;;;;;;;12.50;3.25;;;16.90;99.90;;;;;;7389895;19;20130;-74
2022/10/24 08:04:10;;;;;;;8.05;2.72;;;16.90;99.90;;;;;;7386180;19;20301;-75
2022/10/24 08:06:36;;;;;;;4.05;1.65;;;16.90;99.90;;;;;;7389287;19;20180;-74
2022/10/24 08:09:02;;;;;;;4.25;1.60;;;16.90;99.90;;;;;;7389786;19;20612;-74
2022/10/24 08:11:30;;;;;;;5.70;2.53;;;16.90;99.90;;;;;;7391179;19;20658;-73
2022/10/24 08:13:56;;;;;;;8.43;2.30;;;17.00;99.90;;;;;;7391366;19;20805;-74
2022/10/24 08:16:23;;;;;;;4.97;2.72;;;17.00;99.90;;;;;;7390783;19;20171;-75
2022/10/24 08:18:51;;;;;;;3.40;1.92;;;17.10;99.90;;;;;;7390380;19;20260;-73
2022/10/24 08:21:19;;;;;;;6.20;1.73;;;17.00;99.90;;;;;;7388265;19;20134;-74
2022/10/24 08:23:47;;;;;;;4.80;1.75;;;17.00;99.90;;;;;;7388178;19;20162;-75
2022/10/24 08:26:15;;;;;;;8.18;1.70;;;17.10;99.90;;;;;;7387593;19;20150;-75
2022/10/24 08:28:42;;;;;;;3.35;1.40;;;17.10;99.90;;;;;;7385751;19;20151;-77
2022/10/24 08:31:11;;;;;;;9.18;2.67;;;17.10;99.90;;;;;;7385591;19;20139;-75
2022/10/24 08:33:37;;;;;;;5.63;1.88;;;17.10;99.90;;;;;;7390274;19;20138;-74
2022/10/24 08:36:10;;;;;;;4.50;1.88;;;17.10;99.90;;;;;;7388462;19;20173;-75
2022/10/24 08:38:36;;;;;;;4.25;1.75;;;17.10;99.90;;;;;;7386661;19;20150;-76
2022/10/24 08:41:02;;;;;;;5.88;1.40;;;17.00;99.90;;;;;;7389116;19;20473;-76
2022/10/24 08:43:28;;;;;;;4.32;1.67;;;17.10;99.90;;;;;;7387490;19;20909;-76
2022/10/24 08:45:56;;;;;;;4.97;2.22;;;17.20;99.90;;;;;;7386698;19;20143;-75
2022/10/24 08:48:27;;;;;;;3.78;1.80;;;17.30;99.90;;;;;;7388771;19;20472;-75
2022/10/24 08:51:01;;;;;;;10.32;4.88;;;17.30;99.90;;;;;;7387897;19;20501;-76
2022/10/24 08:53:30;;;;;;;4.63;1.85;;;17.30;99.90;;;;;;7389607;19;20134;-74
2022/10/24 08:56:00;;;;;;;6.32;1.80;;;17.20;99.90;;;;;;7389430;19;20588;-74
2022/10/24 08:58:42;;;;;;;3.83;1.70;;;17.30;99.90;;;;;;7384324;19;20213;-75
2022/10/24 09:01:20;;;;;;;4.53;1.35;;;17.40;99.90;;;;;;7387401;19;20139;-75
2022/10/24 09:03:51;;;;;;;4.65;1.60;;;17.40;99.90;;;;;;7385476;19;20234;-75
2022/10/24 09:06:17;;;;;;;4.07;1.48;;;17.50;99.90;;;;;;7387055;19;20692;-75
2022/10/24 09:08:51;;;;;;;5.45;2.10;;;17.40;99.90;;;;;;7387650;19;20146;-74
2022/10/24 09:11:59;;;;;;;3.53;1.80;;;17.50;99.90;;;;;;7390524;19;20599;-75
2022/10/24 09:14:35;;;;;;;3.05;1.90;;;17.50;99.90;;;;;;7387700;19;20150;-76
2022/10/24 09:17:21;;;;;;;6.00;2.13;;;17.50;99.90;;;;;;7391088;19;20135;-74
2022/10/24 09:20:19;;;;;;;5.75;1.75;;;17.70;99.90;;;;;;7385704;19;20175;-74
2022/10/24 09:22:45;;;;;;;8.30;2.00;;;17.70;99.90;;;;;;7388089;19;20138;-75
2022/10/24 09:25:14;;;;;;;5.60;2.35;;;17.60;99.90;;;;;;7390888;19;20135;-76
2022/10/24 09:27:41;;;;;;;7.65;2.20;;;17.50;99.90;;;;;;7385996;19;20130;-74
2022/10/24 09:30:16;;;;;;;4.60;1.70;;;17.40;99.90;;;;;;7389192;19;20174;-75
2022/10/24 09:32:42;;;;;;;5.32;1.63;;;17.40;99.90;;;;;;7388530;19;20623;-76
2022/10/24 09:35:16;;;;;;;7.65;2.00;;;17.50;99.90;;;;;;7391325;19;20131;-75
2022/10/24 09:37:47;;;;;;;4.78;1.55;;;17.60;99.90;;;;;;7389401;19;20130;-75
2022/10/24 09:40:32;;;;;;;3.22;1.50;;;17.50;99.90;;;;;;7395539;19;20170;-75
2022/10/24 09:43:17;;;;;;;6.03;1.70;;;17.30;99.90;;;;;;7396343;19;20134;-75
2022/10/24 09:46:15;;;;;;;4.50;2.17;;;17.20;99.90;;;;;;7397607;19;20178;-76
2022/10/24 09:48:53;;;;;;;4.28;2.10;;;17.40;99.90;;;;;;7397198;19;20151;-73
2022/10/24 09:51:34;;;;;;;8.07;2.40;;;17.60;99.90;;;;;;7401775;19;20949;-75
2022/10/24 09:54:20;;;;;;;5.45;2.40;;;17.60;99.90;;;;;;7391266;19;20174;-75
2022/10/24 09:56:58;;;;;;;3.92;1.95;;;17.60;99.90;;;;;;7394415;19;20623;-75
2022/10/24 09:59:27;;;;;;;5.15;2.25;;;17.40;99.90;;;;;;7391262;19;20208;-75
2022/10/24 10:02:04;;;;;;;3.83;1.75;;;17.20;99.90;;;;;;7393617;19;20135;-75
2022/10/24 10:04:30;;;;;;;4.70;1.58;;;17.00;99.90;;;;;;7395471;19;20186;-76
2022/10/24 10:06:55;;;;;;;5.10;2.10;;;17.10;99.90;;;;;;7396622;19;20169;-77
2022/10/24 10:09:26;;;;;;;5.82;3.50;;;17.20;99.90;;;;;;7395502;19;20142;-76
2022/10/24 10:11:57;;;;;;;9.57;4.00;;;17.30;99.90;;;;;;7395787;19;20578;-76
2022/10/24 10:14:27;;;;;;;5.78;2.90;;;17.30;99.90;;;;;;7395455;19;20221;-75
2022/10/24 10:17:06;;;;;;;6.35;2.53;;;17.30;99.90;;;;;;7395607;19;20475;-76
2022/10/24 10:19:36;;;;;;;5.25;1.90;;;17.30;99.90;;;;;;7392002;19;20142;-76
2022/10/24 10:22:20;;;;;;;3.92;2.22;;;17.30;99.90;;;;;;7395217;19;20141;-75
2022/10/24 10:24:46;;;;;;;7.03;3.10;;;17.50;99.90;;;;;;7397273;19;20134;-77
2022/10/24 10:27:30;;;;;;;6.10;2.13;;;17.70;99.90;;;;;;7396874;19;20127;-76
2022/10/24 10:30:14;;;;;;;3.88;1.70;;;17.80;99.90;;;;;;7397723;19;20160;-76
2022/10/24 10:32:59;;;;;;;4.50;1.70;;;17.70;99.90;;;;;;7393217;19;20130;-77
2022/10/24 10:35:31;;;;;;;4.32;1.40;;;17.80;99.90;;;;;;7387540;19;20171;-75
2022/10/24 10:38:16;;;;;;;4.60;1.80;;;17.80;99.90;;;;;;7387673;19;20150;-74
2022/10/24 10:40:47;;;;;;;2.72;1.48;;;17.90;99.90;;;;;;7397218;19;20127;-79
2022/10/24 10:43:49;;;;;;;7.38;2.20;;;18.00;99.90;;;;;;7398371;19;20139;-76
2022/10/24 10:46:28;;;;;;;4.43;2.38;;;18.00;99.90;;;;;;7395128;19;20161;-75
2022/10/24 10:49:18;;;;;;;3.15;1.40;;;17.90;99.90;;;;;;7401014;19;20162;-75
2022/10/24 10:51:51;;;;;;;4.03;1.40;;;17.90;99.90;;;;;;7399784;19;20145;-75
2022/10/24 10:54:53;;;;;;;2.63;1.50;;;17.90;99.90;;;;;;7391108;19;20214;-75
2022/10/24 10:57:23;;;;;;;6.72;1.40;;;17.80;99.90;;;;;;7385837;19;20138;-77
2022/10/24 11:00:16;;;;;;;3.35;1.45;;;17.90;99.90;;;;;;7381749;19;20541;-75
2022/10/24 11:03:24;;;;;;;2.20;0.98;;;17.90;99.90;;;;;;7384185;19;20147;-74
2022/10/24 11:06:14;;;;;;;3.55;1.48;;;17.90;99.90;;;;;;7388239;19;20170;-75
2022/10/24 11:09:33;;;;;;;5.00;1.02;;;17.90;99.90;;;;;;7391258;19;20142;-75
2022/10/24 11:12:38;;;;;;;2.17;1.20;;;17.80;99.90;;;;;;7388896;19;20135;-73
2022/10/24 11:15:17;;;;;;;1.90;1.20;;;17.80;99.90;;;;;;7389564;19;20159;-75
2022/10/24 11:17:45;;;;;;;1.17;0.95;;;17.80;99.90;;;;;;7388745;19;20165;-76
2022/10/24 11:20:25;;;;;;;2.33;1.42;;;17.70;99.90;;;;;;7391431;19;20222;-75
2022/10/24 11:23:09;;;;;;;4.97;2.33;;;17.70;99.90;;;;;;7392257;19;20157;-76
2022/10/24 11:25:49;;;;;;;2.08;1.25;;;17.60;99.90;;;;;;7392408;19;20611;-76
2022/10/24 11:28:21;;;;;;;4.22;1.63;;;17.70;99.90;;;;;;7393336;19;20145;-75
2022/10/24 11:31:12;;;;;;;4.20;1.00;;;17.70;99.90;;;;;;7386335;19;20137;-76
2022/10/24 11:34:34;;;;;;;2.72;1.25;;;17.70;99.90;;;;;;7391947;19;20194;-75
2022/10/24 11:37:08;;;;;;;3.00;1.00;;;17.80;99.90;;;;;;7386398;19;20130;-76
2022/10/24 11:39:47;;;;;;;5.03;1.42;;;17.80;99.90;;;;;;7381055;19;20153;-76
2022/10/24 11:42:28;;;;;;;3.95;1.38;;;17.80;99.90;;;;;;7389022;19;20153;-77
2022/10/24 11:45:02;;;;;;;1.88;1.05;;;17.80;99.90;;;;;;7388697;19;20154;-76
2022/10/24 11:47:27;;;;;;;2.13;1.17;;;17.90;99.90;;;;;;7386047;19;20772;-75
2022/10/24 11:50:17;;;;;;;3.20;1.13;;;17.80;99.90;;;;;;7387385;19;20160;-76
2022/10/24 11:52:51;;;;;;;4.90;1.10;;;17.80;99.90;;;;;;7389598;19;20588;-76
2022/10/24 11:55:30;;;;;;;4.65;1.80;;;17.90;99.90;;;;;;7387564;19;20153;-76
2022/10/24 11:57:59;;;;;;;3.45;1.15;;;17.80;99.90;;;;;;7387495;19;20150;-77
2022/10/24 12:00:32;;;;;;;3.40;2.15;;;17.90;99.90;;;;;;7386878;19;20139;-75
2022/10/24 12:03:04;;;;;;;4.53;3.03;;;17.90;99.90;;;;;;7380479;19;20157;-76
2022/10/24 12:05:40;;;;;;;4.82;1.42;;;17.80;99.90;;;;;;7390269;19;20666;-76
2022/10/24 12:08:25;;;;;;;3.00;1.05;;;17.90;99.90;;;;;;7389935;19;20182;-75
2022/10/24 12:11:13;;;;;;;2.75;1.20;;;18.10;99.90;;;;;;7385775;19;20142;-76
2022/10/24 12:14:02;;;;;;;2.63;1.13;;;18.00;99.90;;;;;;7383668;19;20145;-76
2022/10/24 12:16:44;;;;;;;2.35;0.95;;;18.00;99.90;;;;;;7389925;19;20607;-75
2022/10/24 12:19:16;;;;;;;3.28;0.90;;;17.90;99.90;;;;;;7386958;19;20138;-75
2022/10/24 12:21:51;;;;;;;1.52;0.77;;;17.80;99.90;;;;;;7381725;19;20253;-75
2022/10/24 12:24:34;;;;;;;2.92;1.10;;;17.90;99.90;;;;;;7384400;19;20629;-76
2022/10/24 12:27:20;;;;;;;2.40;0.98;;;18.00;99.90;;;;;;7387612;19;20619;-76
2022/10/24 12:30:00;;;;;;;5.13;1.40;;;18.00;99.90;;;;;;7390414;19;20146;-76
2022/10/24 12:32:38;;;;;;;3.75;1.10;;;18.00;99.90;;;;;;7387811;19;20142;-76
2022/10/24 12:35:26;;;;;;;2.30;1.00;;;18.10;99.90;;;;;;7391067;19;20607;-75
2022/10/24 12:37:56;;;;;;;4.03;1.30;;;18.20;99.90;;;;;;7387938;19;20161;-76
2022/10/24 12:40:44;;;;;;;6.93;2.28;;;18.30;99.90;;;;;;7385000;19;20422;-76
2022/10/24 12:43:44;;;;;;;4.15;1.00;;;18.10;99.90;;;;;;7390442;19;20130;-76
2022/10/24 12:46:16;;;;;;;2.13;1.10;;;18.00;99.90;;;;;;7387920;19;20190;-76
2022/10/24 12:48:57;;;;;;;4.20;1.05;;;17.90;99.90;;;;;;7386064;19;20143;-75
2022/10/24 12:51:35;;;;;;;1.40;1.00;;;18.00;99.90;;;;;;7387999;19;20142;-76
2022/10/24 12:54:15;;;;;;;6.80;1.42;;;18.00;99.90;;;;;;7389440;19;20138;-76
2022/10/24 12:57:01;;;;;;;5.32;1.20;;;17.90;99.90;;;;;;7385743;19;20207;-76
2022/10/24 12:59:29;;;;;;;4.93;1.17;;;18.20;99.90;;;;;;7386483;19;20141;-76
2022/10/24 13:02:11;;;;;;;5.65;1.55;;;18.20;99.90;;;;;;7386685;19;20135;-76
2022/10/24 13:04:59;;;;;;;2.85;1.30;;;18.30;99.90;;;;;;7387091;19;20139;-75
2022/10/24 13:07:50;;;;;;;5.50;1.02;;;18.20;99.90;;;;;;7387279;19;20219;-76
2022/10/24 13:10:43;;;;;;;3.67;1.08;;;18.20;99.90;;;;;;7388077;19;20198;-76
2022/10/24 13:13:29;;;;;;;2.60;0.90;;;18.30;99.90;;;;;;7389766;19;20253;-75